Time;durP1;ratioP1;P1;durP2;ratioP2;P2;SDS_P1;SDS_P2;PMS_P1;PMS_P2;Temp;Humidity;BMP_temperature;BMP_pressure;BME280_temperature;BME280_humidity;BME280_pressure;Samples;Min_cycle;Max_cycle;Signal;HPM_P1;HPM_P2
2022/09/30 00:01:20;;;;;;;6.97;4.78;;;;;;;;;;5055733;28;20021;-74
2022/09/30 00:03:49;;;;;;;5.72;4.53;;;;;;;;;;5058789;28;20123;-75
2022/09/30 00:06:15;;;;;;;6.68;4.85;;;;;;;;;;5044171;28;20678;-74
2022/09/30 00:08:42;;;;;;;8.23;4.93;;;;;;;;;;5062985;28;20347;-75
2022/09/30 00:11:12;;;;;;;5.90;4.53;;;;;;;;;;5068474;28;20397;-75
2022/09/30 00:13:39;;;;;;;7.25;5.22;;;;;;;;;;5066706;28;20016;-74
2022/09/30 00:16:05;;;;;;;6.32;4.72;;;;;;;;;;5056830;28;20029;-74
2022/09/30 00:18:32;;;;;;;7.50;4.50;;;;;;;;;;5060742;28;20154;-75
2022/09/30 00:20:58;;;;;;;9.02;4.43;;;;;;;;;;5063454;28;20562;-74
2022/09/30 00:23:25;;;;;;;5.57;3.88;;;;;;;;;;5049157;28;20040;-74
2022/09/30 00:25:56;;;;;;;6.15;4.82;;;;;;;;;;5066575;28;20034;-74
2022/09/30 00:28:22;;;;;;;5.95;4.63;;;;;;;;;;5054408;28;20374;-75
2022/09/30 00:30:48;;;;;;;8.45;4.50;;;;;;;;;;5065305;28;20024;-75
2022/09/30 00:33:15;;;;;;;6.32;4.75;;;;;;;;;;5057173;28;20455;-74
2022/09/30 00:35:41;;;;;;;6.50;4.13;;;;;;;;;;5061810;28;20024;-75
2022/09/30 00:38:07;;;;;;;5.88;4.72;;;;;;;;;;5068649;28;20030;-74
2022/09/30 00:40:33;;;;;;;5.65;4.10;;;;;;;;;;5049349;28;20103;-74
2022/09/30 00:42:59;;;;;;;4.75;4.03;;;;;;;;;;5045120;28;20028;-74
2022/09/30 00:45:27;;;;;;;7.22;3.88;;;;;;;;;;5062415;28;20029;-74
2022/09/30 00:48:01;;;;;;;8.52;4.25;;;;;;;;;;5064125;28;20027;-75
2022/09/30 00:50:32;;;;;;;5.13;4.13;;;;;;;;;;5061021;28;20017;-75
2022/09/30 00:53:08;;;;;;;4.18;3.65;;;;;;;;;;5060453;28;20071;-74
2022/09/30 00:55:46;;;;;;;6.13;4.38;;;;;;;;;;5068552;28;20009;-75
2022/09/30 00:58:15;;;;;;;6.20;4.18;;;;;;;;;;5073630;28;20043;-74
2022/09/30 01:00:42;;;;;;;5.70;4.05;;;;;;;;;;5060646;28;20036;-74
2022/09/30 01:03:08;;;;;;;4.90;4.00;;;;;;;;;;5072027;28;20029;-74
2022/09/30 01:05:36;;;;;;;5.72;4.35;;;;;;;;;;5064654;28;20028;-75
2022/09/30 01:08:04;;;;;;;5.95;4.03;;;;;;;;;;5064084;28;20025;-74
2022/09/30 01:10:30;;;;;;;4.50;3.92;;;;;;;;;;5060268;28;20057;-74
2022/09/30 01:12:56;;;;;;;6.57;3.60;;;;;;;;;;5066370;28;20480;-74
2022/09/30 01:15:29;;;;;;;6.05;4.05;;;;;;;;;;5065609;28;20433;-75
2022/09/30 01:18:03;;;;;;;6.32;3.85;;;;;;;;;;5050054;28;20461;-74
2022/09/30 01:20:39;;;;;;;4.18;3.50;;;;;;;;;;5047192;28;20067;-74
2022/09/30 01:23:05;;;;;;;6.88;4.22;;;;;;;;;;5053048;28;20053;-75
2022/09/30 01:25:50;;;;;;;5.13;3.88;;;;;;;;;;5051735;28;20033;-74
2022/09/30 01:28:25;;;;;;;5.03;3.90;;;;;;;;;;5062102;28;20024;-74
2022/09/30 01:31:10;;;;;;;4.20;3.75;;;;;;;;;;5050773;28;20031;-74
2022/09/30 01:33:39;;;;;;;4.43;3.80;;;;;;;;;;5062263;28;20118;-74
2022/09/30 01:36:08;;;;;;;4.18;3.75;;;;;;;;;;5074231;28;20032;-75
2022/09/30 01:38:44;;;;;;;5.78;4.38;;;;;;;;;;5054964;28;20492;-73
2022/09/30 01:41:17;;;;;;;6.05;3.70;;;;;;;;;;5054228;28;20425;-75
2022/09/30 01:43:44;;;;;;;5.97;4.13;;;;;;;;;;5066812;28;20020;-74
2022/09/30 01:46:25;;;;;;;4.07;3.67;;;;;;;;;;5068023;28;20020;-74
2022/09/30 01:49:05;;;;;;;5.63;3.63;;;;;;;;;;5061699;28;20114;-74
2022/09/30 01:51:47;;;;;;;4.47;3.45;;;;;;;;;;5072053;28;20052;-74
2022/09/30 01:54:22;;;;;;;7.43;3.65;;;;;;;;;;5053908;28;20140;-75
2022/09/30 01:56:58;;;;;;;6.00;3.63;;;;;;;;;;5069382;28;20033;-74
2022/09/30 01:59:26;;;;;;;4.32;3.55;;;;;;;;;;5070627;28;20477;-75
2022/09/30 02:01:57;;;;;;;4.90;4.18;;;;;;;;;;5069339;28;20029;-75
2022/09/30 02:04:34;;;;;;;4.13;3.72;;;;;;;;;;5070456;28;20033;-75
2022/09/30 02:07:03;;;;;;;5.60;3.28;;;;;;;;;;5070261;28;20412;-74
2022/09/30 02:09:35;;;;;;;6.95;3.33;;;;;;;;;;5044887;28;20032;-75
2022/09/30 02:12:04;;;;;;;4.13;3.60;;;;;;;;;;5070725;28;20849;-74
2022/09/30 02:14:37;;;;;;;8.70;2.97;;;;;;;;;;5066910;28;20028;-74
2022/09/30 02:17:29;;;;;;;4.25;3.22;;;;;;;;;;5055382;28;20028;-75
2022/09/30 02:20:10;;;;;;;3.30;2.80;;;;;;;;;;5069273;28;20093;-75
2022/09/30 02:22:43;;;;;;;4.25;2.83;;;;;;;;;;5066319;28;20080;-74
2022/09/30 02:25:11;;;;;;;3.35;2.88;;;;;;;;;;5067597;28;20029;-74
2022/09/30 02:27:41;;;;;;;3.72;2.65;;;;;;;;;;5071117;28;20035;-74
2022/09/30 02:30:08;;;;;;;3.92;3.05;;;;;;;;;;5058991;28;20147;-74
2022/09/30 02:32:38;;;;;;;3.95;3.25;;;;;;;;;;5059490;28;20035;-74
2022/09/30 02:35:10;;;;;;;4.55;2.70;;;;;;;;;;5066316;28;20031;-73
2022/09/30 02:37:49;;;;;;;3.60;2.90;;;;;;;;;;5062651;28;20135;-74
2022/09/30 02:40:30;;;;;;;4.22;3.42;;;;;;;;;;5063767;28;20477;-74
2022/09/30 02:42:56;;;;;;;3.33;2.50;;;;;;;;;;5066654;28;20025;-74
2022/09/30 02:45:23;;;;;;;2.97;2.63;;;;;;;;;;5061673;28;20020;-75
2022/09/30 02:47:58;;;;;;;2.80;2.35;;;;;;;;;;5055776;28;20219;-75
2022/09/30 02:50:33;;;;;;;3.13;2.58;;;;;;;;;;5062418;28;20549;-74
2022/09/30 02:53:08;;;;;;;3.55;2.40;;;;;;;;;;5050780;28;20120;-74
2022/09/30 02:55:38;;;;;;;2.90;2.40;;;;;;;;;;5056727;28;20084;-75
2022/09/30 02:58:08;;;;;;;3.67;2.50;;;;;;;;;;5063005;28;20036;-75
2022/09/30 03:00:34;;;;;;;5.07;3.03;;;;;;;;;;5062429;28;20024;-74
2022/09/30 03:03:04;;;;;;;2.72;2.40;;;;;;;;;;5068407;28;20017;-74
2022/09/30 03:05:30;;;;;;;3.22;2.85;;;;;;;;;;5065301;28;20052;-74
2022/09/30 03:07:56;;;;;;;3.30;2.30;;;;;;;;;;5048927;28;20174;-75
2022/09/30 03:10:22;;;;;;;3.95;3.03;;;;;;;;;;5069510;28;20025;-75
2022/09/30 03:13:03;;;;;;;4.97;2.42;;;;;;;;;;5067301;28;20089;-74
2022/09/30 03:15:35;;;;;;;3.53;2.30;;;;;;;;;;5044700;28;20017;-74
2022/09/30 03:18:35;;;;;;;2.60;2.17;;;;;;;;;;5067622;28;20531;-75
2022/09/30 03:21:09;;;;;;;4.05;2.25;;;;;;;;;;5005386;28;20104;-74
2022/09/30 03:23:45;;;;;;;3.55;2.17;;;;;;;;;;5040967;28;20114;-74
2022/09/30 03:26:23;;;;;;;2.80;2.20;;;;;;;;;;5061194;28;20034;-75
2022/09/30 03:29:00;;;;;;;2.40;2.20;;;;;;;;;;5052702;28;20059;-75
2022/09/30 03:31:44;;;;;;;2.67;2.30;;;;;;;;;;5065594;28;20044;-74
2022/09/30 03:34:17;;;;;;;3.20;2.17;;;;;;;;;;5074331;28;20100;-74
2022/09/30 03:36:52;;;;;;;2.35;2.00;;;;;;;;;;5055760;28;20090;-75
2022/09/30 03:39:26;;;;;;;2.17;1.60;;;;;;;;;;5052244;28;20017;-74
2022/09/30 03:41:58;;;;;;;4.05;2.45;;;;;;;;;;5054415;28;20043;-74
2022/09/30 03:44:31;;;;;;;2.20;1.75;;;;;;;;;;5045134;28;20042;-74
2022/09/30 03:47:00;;;;;;;2.70;2.10;;;;;;;;;;5071553;28;20024;-77
2022/09/30 03:49:30;;;;;;;3.03;1.98;;;;;;;;;;5064711;28;20032;-74
2022/09/30 03:51:56;;;;;;;3.10;1.80;;;;;;;;;;5065338;28;20543;-74
2022/09/30 03:54:23;;;;;;;2.80;1.88;;;;;;;;;;5054333;28;20457;-74
2022/09/30 03:56:49;;;;;;;2.65;1.85;;;;;;;;;;5064674;28;20025;-74
2022/09/30 03:59:27;;;;;;;2.25;1.98;;;;;;;;;;5067149;28;20028;-74
2022/09/30 04:01:53;;;;;;;2.00;1.80;;;;;;;;;;5065674;28;20100;-74
2022/09/30 04:04:20;;;;;;;2.20;2.00;;;;;;;;;;5041538;28;20108;-75
2022/09/30 04:06:46;;;;;;;5.55;2.20;;;;;;;;;;5064959;28;20028;-74
2022/09/30 04:09:13;;;;;;;2.25;2.00;;;;;;;;;;5051102;28;20048;-74
2022/09/30 04:11:39;;;;;;;3.90;2.05;;;;;;;;;;5046050;28;20048;-73
2022/09/30 04:14:05;;;;;;;4.32;2.10;;;;;;;;;;5045281;28;20087;-74
2022/09/30 04:16:33;;;;;;;2.45;2.08;;;;;;;;;;5064306;28;20052;-73
2022/09/30 04:18:59;;;;;;;2.90;2.15;;;;;;;;;;5061555;28;20056;-74
2022/09/30 04:21:28;;;;;;;2.88;1.90;;;;;;;;;;5055868;28;20417;-74
2022/09/30 04:23:54;;;;;;;4.15;2.20;;;;;;;;;;5060595;28;20040;-74
2022/09/30 04:26:21;;;;;;;3.28;2.25;;;;;;;;;;5064422;28;20048;-73
2022/09/30 04:28:47;;;;;;;2.10;1.90;;;;;;;;;;5065445;28;20600;-74
2022/09/30 04:31:16;;;;;;;2.60;2.15;;;;;;;;;;5066611;28;20496;-72
2022/09/30 04:33:44;;;;;;;3.17;2.03;;;;;;;;;;5058406;28;20050;-74
2022/09/30 04:36:10;;;;;;;5.20;1.98;;;;;;;;;;5048834;28;20041;-73
2022/09/30 04:38:36;;;;;;;2.05;1.83;;;;;;;;;;5065708;28;20600;-74
2022/09/30 04:41:09;;;;;;;2.40;2.10;;;;;;;;;;5059241;28;20037;-74
2022/09/30 04:43:35;;;;;;;2.75;1.88;;;;;;;;;;5064068;28;20032;-73
2022/09/30 04:46:01;;;;;;;2.65;2.08;;;;;;;;;;5062783;28;20070;-73
2022/09/30 04:48:30;;;;;;;3.17;2.00;;;;;;;;;;5063589;28;20051;-74
2022/09/30 04:50:57;;;;;;;2.60;1.90;;;;;;;;;;5067524;28;20401;-74
2022/09/30 04:53:23;;;;;;;4.22;2.05;;;;;;;;;;5066219;28;20015;-74
2022/09/30 04:55:49;;;;;;;2.45;2.10;;;;;;;;;;5042448;28;20025;-73
2022/09/30 04:58:15;;;;;;;3.08;2.50;;;;;;;;;;5047373;28;20036;-74
2022/09/30 05:00:42;;;;;;;9.30;2.40;;;;;;;;;;5060649;28;20025;-73
2022/09/30 05:03:08;;;;;;;2.70;2.10;;;;;;;;;;5052462;28;20534;-73
2022/09/30 05:05:34;;;;;;;2.67;2.33;;;;;;;;;;5045294;28;20400;-73
2022/09/30 05:08:01;;;;;;;5.75;3.05;;;;;;;;;;5066441;28;20048;-73
2022/09/30 05:10:28;;;;;;;3.42;2.50;;;;;;;;;;5082829;28;20583;-73
2022/09/30 05:12:55;;;;;;;3.90;2.58;;;;;;;;;;5044941;28;20032;-73
2022/09/30 05:15:21;;;;;;;2.72;2.20;;;;;;;;;;5064730;28;20036;-74
2022/09/30 05:17:51;;;;;;;3.33;2.58;;;;;;;;;;5070352;28;20056;-73
2022/09/30 05:20:17;;;;;;;2.97;2.65;;;;;;;;;;5058723;28;20507;-73
2022/09/30 05:22:43;;;;;;;3.20;2.58;;;;;;;;;;5041550;28;20441;-73
2022/09/30 05:25:09;;;;;;;3.80;2.72;;;;;;;;;;5020901;28;20026;-74
2022/09/30 05:27:35;;;;;;;4.28;2.63;;;;;;;;;;5029838;28;20105;-72
2022/09/30 05:30:02;;;;;;;2.80;2.50;;;;;;;;;;5030226;28;20124;-73
2022/09/30 05:32:28;;;;;;;3.88;2.90;;;;;;;;;;5033092;28;20033;-74
2022/09/30 05:34:54;;;;;;;3.47;2.80;;;;;;;;;;5031842;28;20025;-73
2022/09/30 05:37:20;;;;;;;5.07;3.03;;;;;;;;;;5046850;28;20077;-73
2022/09/30 05:39:47;;;;;;;4.18;2.42;;;;;;;;;;5030694;28;20036;-73
2022/09/30 05:42:13;;;;;;;5.97;2.97;;;;;;;;;;5033027;28;20018;-72
2022/09/30 05:44:39;;;;;;;3.13;2.40;;;;;;;;;;5061836;28;20033;-73
2022/09/30 05:47:05;;;;;;;6.82;2.65;;;;;;;;;;5027966;28;20033;-73
2022/09/30 05:49:33;;;;;;;5.65;3.58;;;;;;;;;;5030920;28;20056;-74
2022/09/30 05:51:59;;;;;;;3.00;2.70;;;;;;;;;;5029810;28;20021;-74
2022/09/30 05:54:25;;;;;;;3.58;2.28;;;;;;;;;;5044137;28;20474;-73
2022/09/30 05:56:51;;;;;;;3.03;2.25;;;;;;;;;;5031606;28;20032;-72
2022/09/30 05:59:18;;;;;;;2.58;2.15;;;;;;;;;;5030196;28;20498;-73
2022/09/30 06:01:44;;;;;;;3.47;2.33;;;;;;;;;;5030272;28;20457;-73
2022/09/30 06:04:11;;;;;;;2.47;2.20;;;;;;;;;;5031985;28;20029;-73
2022/09/30 06:06:37;;;;;;;2.33;2.08;;;;;;;;;;5030318;28;20440;-73
2022/09/30 06:09:03;;;;;;;2.40;2.13;;;;;;;;;;5031036;28;20040;-73
2022/09/30 06:11:30;;;;;;;6.00;3.45;;;;;;;;;;5032503;28;20056;-73
2022/09/30 06:13:57;;;;;;;3.28;2.50;;;;;;;;;;5029280;28;20156;-73
2022/09/30 06:16:23;;;;;;;5.90;3.15;;;;;;;;;;5030408;28;20340;-73
2022/09/30 06:18:49;;;;;;;3.58;2.67;;;;;;;;;;5030320;28;20034;-73
2022/09/30 06:21:16;;;;;;;2.60;2.30;;;;;;;;;;5033043;28;20090;-73
2022/09/30 06:23:43;;;;;;;2.75;2.25;;;;;;;;;;5051966;28;20036;-73
2022/09/30 06:26:10;;;;;;;2.90;2.40;;;;;;;;;;5064651;28;20620;-74
2022/09/30 06:28:37;;;;;;;3.40;2.30;;;;;;;;;;5071228;28;20482;-72
2022/09/30 06:31:03;;;;;;;3.00;2.60;;;;;;;;;;5051173;28;20544;-75
2022/09/30 06:33:30;;;;;;;2.90;2.20;;;;;;;;;;5060505;28;20024;-74
2022/09/30 06:35:56;;;;;;;2.78;1.92;;;;;;;;;;5064176;28;20028;-74
2022/09/30 06:38:22;;;;;;;2.90;1.90;;;;;;;;;;5043392;28;20020;-73
2022/09/30 06:40:49;;;;;;;1.95;1.60;;;;;;;;;;5052853;28;20054;-73
2022/09/30 06:43:19;;;;;;;3.15;1.67;;;;;;;;;;5062810;28;20028;-73
2022/09/30 06:45:47;;;;;;;4.75;2.53;;;;;;;;;;5066713;28;20031;-73
2022/09/30 06:48:13;;;;;;;3.50;2.10;;;;;;;;;;5050055;28;20079;-74
2022/09/30 06:50:39;;;;;;;4.82;2.00;;;;;;;;;;5051437;28;20542;-74
2022/09/30 06:53:06;;;;;;;2.00;1.80;;;;;;;;;;5067116;28;20036;-74
2022/09/30 06:55:32;;;;;;;3.30;1.88;;;;;;;;;;5066314;28;20362;-74
2022/09/30 06:57:58;;;;;;;2.35;1.85;;;;;;;;;;5071008;28;20055;-74
2022/09/30 07:00:27;;;;;;;2.05;1.73;;;;;;;;;;5070133;28;20064;-74
2022/09/30 07:02:55;;;;;;;3.13;1.80;;;;;;;;;;5051873;28;20028;-73
2022/09/30 07:05:21;;;;;;;4.07;1.67;;;;;;;;;;5065070;28;20024;-73
2022/09/30 07:07:48;;;;;;;2.08;1.65;;;;;;;;;;5066429;28;20031;-73
2022/09/30 07:10:14;;;;;;;1.70;1.60;;;;;;;;;;5067033;28;20047;-74
2022/09/30 07:12:41;;;;;;;1.60;1.50;;;;;;;;;;5065231;28;20078;-74
2022/09/30 07:15:07;;;;;;;1.63;1.52;;;;;;;;;;5070332;28;20052;-74
2022/09/30 07:17:34;;;;;;;7.50;1.75;;;;;;;;;;5068581;28;20032;-74
2022/09/30 07:20:00;;;;;;;1.75;1.60;;;;;;;;;;5081479;28;20024;-73
2022/09/30 07:22:26;;;;;;;4.45;1.70;;;;;;;;;;5045194;28;20128;-75
2022/09/30 07:24:52;;;;;;;1.92;1.73;;;;;;;;;;5059958;28;20544;-74
2022/09/30 07:27:19;;;;;;;2.97;1.65;;;;;;;;;;5054216;28;20045;-73
2022/09/30 07:29:46;;;;;;;2.08;1.77;;;;;;;;;;5068285;28;20061;-73
2022/09/30 07:32:12;;;;;;;2.90;1.50;;;;;;;;;;5060379;28;20385;-73
2022/09/30 07:34:43;;;;;;;1.65;1.55;;;;;;;;;;5065670;28;20025;-74
2022/09/30 07:37:13;;;;;;;3.25;1.70;;;;;;;;;;5060974;28;20033;-74
2022/09/30 07:39:40;;;;;;;1.80;1.60;;;;;;;;;;5068706;28;20393;-73
2022/09/30 07:42:06;;;;;;;4.93;1.77;;;;;;;;;;5042829;28;20025;-73
2022/09/30 07:44:33;;;;;;;3.72;1.90;;;;;;;;;;5064571;28;20028;-72
2022/09/30 07:47:02;;;;;;;2.63;1.70;;;;;;;;;;5067237;28;20544;-73
2022/09/30 07:49:28;;;;;;;3.80;2.45;;;;;;;;;;5047014;28;20108;-73
2022/09/30 07:51:58;;;;;;;5.63;2.05;;;;;;;;;;5065117;28;20347;-72
2022/09/30 07:54:26;;;;;;;4.07;1.90;;;;;;;;;;5065531;28;20020;-72
2022/09/30 07:56:53;;;;;;;2.47;1.77;;;;;;;;;;5073094;28;20031;-73
2022/09/30 07:59:19;;;;;;;1.92;1.73;;;;;;;;;;5063757;28;20021;-72
2022/09/30 08:01:46;;;;;;;7.03;2.53;;;;;;;;;;5057493;28;20021;-74
2022/09/30 08:04:12;;;;;;;3.42;1.85;;;;;;;;;;5047816;28;20029;-73
2022/09/30 08:06:40;;;;;;;5.47;1.90;;;;;;;;;;5060033;28;20021;-74
2022/09/30 08:09:06;;;;;;;3.55;1.67;;;;;;;;;;5075076;28;20844;-72
2022/09/30 08:11:34;;;;;;;2.75;1.80;;;;;;;;;;5045702;28;20032;-72
2022/09/30 08:14:04;;;;;;;1.77;1.60;;;;;;;;;;5058696;28;20067;-73
2022/09/30 08:16:33;;;;;;;3.78;1.65;;;;;;;;;;5043972;28;20039;-73
2022/09/30 08:19:02;;;;;;;3.05;1.77;;;;;;;;;;5064011;28;20028;-73
2022/09/30 08:21:29;;;;;;;3.60;1.77;;;;;;;;;;5048553;28;20078;-73
2022/09/30 08:23:57;;;;;;;2.70;2.50;;;;;;;;;;5062776;28;20059;-73
2022/09/30 08:26:23;;;;;;;2.70;1.80;;;;;;;;;;5060524;28;20089;-72
2022/09/30 08:28:50;;;;;;;3.67;1.90;;;;;;;;;;5045429;28;20059;-73
2022/09/30 08:31:17;;;;;;;2.97;1.73;;;;;;;;;;5064063;28;20021;-73
2022/09/30 08:33:44;;;;;;;3.60;1.60;;;;;;;;;;5064978;28;20444;-73
2022/09/30 08:36:11;;;;;;;1.98;1.42;;;;;;;;;;5066897;28;20799;-72
2022/09/30 08:38:37;;;;;;;1.48;1.38;;;;;;;;;;5063861;28;20056;-72
2022/09/30 08:41:22;;;;;;;3.30;1.50;;;;;;;;;;5063057;28;20024;-71
2022/09/30 08:44:04;;;;;;;1.70;1.60;;;;;;;;;;5061274;28;20037;-72
2022/09/30 08:46:38;;;;;;;2.55;1.45;;;;;;;;;;5063502;28;20462;-74
2022/09/30 08:49:19;;;;;;;1.10;1.10;;;;;;;;;;5062599;28;20088;-72
2022/09/30 08:51:46;;;;;;;2.05;1.50;;;;;;;;;;5064178;28;20050;-73
2022/09/30 08:54:24;;;;;;;1.90;1.77;;;;;;;;;;5068155;28;20020;-74
2022/09/30 08:56:51;;;;;;;1.75;1.52;;;;;;;;;;5071821;28;20043;-73
2022/09/30 08:59:38;;;;;;;1.38;1.27;;;;;;;;;;5051367;28;21345;-74
2022/09/30 09:02:15;;;;;;;2.13;1.98;;;;;;;;;;5071340;28;20107;-74
2022/09/30 09:04:41;;;;;;;1.58;1.42;;;;;;;;;;5083386;28;20021;-74
2022/09/30 09:07:16;;;;;;;2.50;1.30;;;;;;;;;;5069443;28;20031;-73
2022/09/30 09:10:00;;;;;;;3.22;1.60;;;;;;;;;;5066933;28;20039;-73
2022/09/30 09:12:30;;;;;;;2.20;1.55;;;;;;;;;;5062321;28;20476;-74
2022/09/30 09:14:59;;;;;;;3.47;2.03;;;;;;;;;;5069111;28;20094;-74
2022/09/30 09:17:38;;;;;;;1.40;1.30;;;;;;;;;;5067463;28;20074;-73
2022/09/30 09:20:19;;;;;;;1.92;1.35;;;;;;;;;;5070834;28;20067;-74
2022/09/30 09:22:45;;;;;;;1.55;1.38;;;;;;;;;;5053640;28;20167;-74
2022/09/30 09:25:16;;;;;;;4.28;1.58;;;;;;;;;;5054494;28;20122;-74
2022/09/30 09:28:03;;;;;;;1.58;1.48;;;;;;;;;;5066663;28;20081;-73
2022/09/30 09:30:31;;;;;;;2.60;1.58;;;;;;;;;;5064424;28;20024;-75
2022/09/30 09:33:00;;;;;;;1.60;1.50;;;;;;;;;;5070146;28;20187;-73
2022/09/30 09:35:45;;;;;;;2.25;1.70;;;;;;;;;;5064327;28;20061;-73
2022/09/30 09:38:23;;;;;;;1.93;1.73;;;;;;;;;;5065422;28;20025;-72
2022/09/30 09:40:57;;;;;;;3.75;2.20;;;;;;;;;;5064737;28;20882;-73
2022/09/30 09:43:49;;;;;;;1.65;1.40;;;;;;;;;;5067730;28;20035;-72
2022/09/30 09:46:16;;;;;;;4.68;1.80;;;;;;;;;;5068290;28;20050;-75
2022/09/30 09:48:43;;;;;;;2.00;1.60;;;;;;;;;;5049713;28;20246;-72
2022/09/30 09:51:28;;;;;;;3.65;1.48;;;;;;;;;;5067902;28;20024;-73
2022/09/30 09:53:57;;;;;;;3.47;2.28;;;;;;;;;;5066738;28;20028;-73
2022/09/30 09:56:26;;;;;;;4.07;1.70;;;;;;;;;;5068337;28;20401;-72
2022/09/30 09:59:12;;;;;;;2.97;1.52;;;;;;;;;;5067461;28;20067;-72
2022/09/30 10:01:39;;;;;;;2.88;1.45;;;;;;;;;;5065235;28;20148;-73
2022/09/30 10:04:10;;;;;;;3.25;2.10;;;;;;;;;;5066384;28;20024;-73
2022/09/30 10:06:50;;;;;;;2.45;1.75;;;;;;;;;;5049353;28;20025;-72
2022/09/30 10:09:27;;;;;;;2.78;1.63;;;;;;;;;;5067686;28;20030;-73
2022/09/30 10:12:05;;;;;;;4.38;1.70;;;;;;;;;;5064480;28;20024;-73
2022/09/30 10:14:36;;;;;;;2.58;1.60;;;;;;;;;;5063795;28;20025;-73
2022/09/30 10:17:03;;;;;;;1.63;1.52;;;;;;;;;;5045053;28;20034;-76
2022/09/30 10:19:32;;;;;;;2.13;1.92;;;;;;;;;;5063311;28;20099;-73
2022/09/30 10:22:07;;;;;;;7.47;2.08;;;;;;;;;;5050081;28;20448;-73
2022/09/30 10:24:33;;;;;;;1.48;1.30;;;;;;;;;;5051786;28;20044;-73
2022/09/30 10:26:59;;;;;;;1.30;1.20;;;;;;;;;;5064722;28;20130;-73
2022/09/30 10:29:33;;;;;;;1.80;1.38;;;;;;;;;;5050064;28;20035;-73
2022/09/30 10:32:01;;;;;;;1.70;1.60;;;;;;;;;;5067549;28;20121;-73
2022/09/30 10:34:33;;;;;;;2.42;2.00;;;;;;;;;;5063732;28;20021;-73
2022/09/30 10:37:01;;;;;;;2.95;2.38;;;;;;;;;;5064145;28;20032;-74
2022/09/30 10:39:35;;;;;;;6.35;4.10;;;;;;;;;;5062806;28;20017;-74
2022/09/30 10:42:07;;;;;;;4.03;1.75;;;;;;;;;;5047103;28;20020;-74
2022/09/30 10:44:37;;;;;;;3.97;1.95;;;;;;;;;;5061930;28;20382;-74
2022/09/30 10:47:04;;;;;;;1.33;1.27;;;;;;;;;;5066278;28;20021;-73
2022/09/30 10:49:35;;;;;;;1.88;1.75;;;;;;;;;;5060989;28;20116;-73
2022/09/30 10:52:02;;;;;;;3.97;1.80;;;;;;;;;;5068761;28;20098;-74
2022/09/30 10:54:42;;;;;;;3.25;1.55;;;;;;;;;;5047696;28;20060;-73
2022/09/30 10:57:25;;;;;;;3.28;1.80;;;;;;;;;;5043441;28;20037;-74
2022/09/30 11:00:04;;;;;;;2.28;1.98;;;;;;;;;;5046483;28;20032;-73
2022/09/30 11:02:37;;;;;;;4.93;1.80;;;;;;;;;;5047765;28;20575;-73
2022/09/30 11:05:03;;;;;;;5.35;2.00;;;;;;;;;;5063125;28;20035;-74
2022/09/30 11:07:32;;;;;;;2.70;1.90;;;;;;;;;;5045962;28;20072;-74
2022/09/30 11:10:17;;;;;;;2.10;1.70;;;;;;;;;;5066695;28;20105;-74
2022/09/30 11:12:45;;;;;;;2.97;1.30;;;;;;;;;;5058637;28;20507;-74
2022/09/30 11:15:18;;;;;;;2.90;1.52;;;;;;;;;;5065107;28;20024;-74
2022/09/30 11:18:08;;;;;;;2.70;1.90;;;;;;;;;;5061939;28;20028;-74
2022/09/30 11:20:36;;;;;;;1.92;1.52;;;;;;;;;;5054075;28;20056;-73
2022/09/30 11:23:11;;;;;;;2.50;1.65;;;;;;;;;;5062839;28;20851;-73
2022/09/30 11:25:47;;;;;;;2.72;1.90;;;;;;;;;;5062208;28;20139;-73
2022/09/30 11:28:13;;;;;;;;;;;;;;;;;;5068360;28;20067;-73
2022/09/30 11:30:43;;;;;;;4.00;1.95;;;;;;;;;;5064459;28;20389;-72
2022/09/30 11:33:14;;;;;;;1.55;1.45;;;;;;;;;;5063985;28;20114;-74
2022/09/30 11:35:49;;;;;;;1.88;1.70;;;;;;;;;;5045534;28;20024;-74
2022/09/30 11:38:34;;;;;;;3.60;1.65;;;;;;;;;;5063004;28;20033;-73
2022/09/30 11:41:06;;;;;;;3.75;1.60;;;;;;;;;;5063485;28;20049;-72
2022/09/30 11:43:32;;;;;;;1.60;1.50;;;;;;;;;;5063053;28;20036;-73
2022/09/30 11:46:07;;;;;;;2.88;1.90;;;;;;;;;;5063472;28;20489;-72
2022/09/30 11:48:48;;;;;;;2.22;1.85;;;;;;;;;;5064870;28;20029;-74
2022/09/30 11:51:21;;;;;;;2.45;1.92;;;;;;;;;;5062321;28;20025;-73
2022/09/30 11:53:57;;;;;;;4.78;1.80;;;;;;;;;;5067156;28;20464;-75
2022/09/30 11:56:41;;;;;;;2.47;1.70;;;;;;;;;;5064376;28;20050;-74
2022/09/30 11:59:15;;;;;;;2.70;1.92;;;;;;;;;;5064636;28;20074;-74
2022/09/30 12:01:42;;;;;;;2.85;1.90;;;;;;;;;;5062395;28;20453;-73
2022/09/30 12:04:08;;;;;;;5.45;2.25;;;;;;;;;;5048338;28;20085;-73
2022/09/30 12:06:40;;;;;;;5.93;2.00;;;;;;;;;;5064734;28;20489;-73
2022/09/30 12:09:27;;;;;;;2.13;1.70;;;;;;;;;;5044885;28;20106;-73
2022/09/30 12:12:15;;;;;;;1.50;1.40;;;;;;;;;;5063295;28;20028;-73
2022/09/30 12:14:44;;;;;;;2.97;1.83;;;;;;;;;;5063688;28;20555;-73
2022/09/30 12:17:30;;;;;;;2.25;1.63;;;;;;;;;;5042957;28;20063;-75
2022/09/30 12:19:58;;;;;;;3.95;1.70;;;;;;;;;;5064604;28;20058;-74
2022/09/30 12:22:41;;;;;;;3.80;2.17;;;;;;;;;;5066122;28;20541;-75
2022/09/30 12:25:19;;;;;;;4.25;1.88;;;;;;;;;;5046477;28;20041;-74
2022/09/30 12:27:49;;;;;;;7.07;2.65;;;;;;;;;;5065929;28;20024;-74
2022/09/30 12:30:17;;;;;;;6.90;2.10;;;;;;;;;;5065331;28;20032;-73
2022/09/30 12:32:52;;;;;;;7.20;2.45;;;;;;;;;;5050843;28;20036;-74
2022/09/30 12:35:38;;;;;;;5.55;2.22;;;;;;;;;;5046377;28;20119;-74
2022/09/30 12:38:04;;;;;;;17.17;4.32;;;;;;;;;;5060510;28;20043;-73
2022/09/30 12:40:49;;;;;;;9.38;2.75;;;;;;;;;;5063069;28;20040;-76
2022/09/30 12:43:15;;;;;;;8.50;2.80;;;;;;;;;;5064356;28;20020;-73
2022/09/30 12:45:44;;;;;;;13.43;4.22;;;;;;;;;;5064705;28;20270;-74
2022/09/30 12:48:12;;;;;;;13.73;4.35;;;;;;;;;;5060866;28;20663;-73
2022/09/30 12:50:44;;;;;;;12.45;4.75;;;;;;;;;;5049269;28;20398;-74
2022/09/30 12:53:15;;;;;;;15.02;3.40;;;;;;;;;;5047268;28;20351;-74
2022/09/30 12:55:41;;;;;;;10.27;3.63;;;;;;;;;;5062595;28;20782;-74
2022/09/30 12:58:17;;;;;;;15.15;4.50;;;;;;;;;;5046601;28;20020;-73
2022/09/30 13:00:57;;;;;;;16.30;3.65;;;;;;;;;;5047776;28;20070;-75
2022/09/30 13:03:24;;;;;;;12.40;3.47;;;;;;;;;;5048044;28;20624;-75
2022/09/30 13:05:52;;;;;;;12.40;3.22;;;;;;;;;;5062717;28;20024;-75
2022/09/30 13:08:18;;;;;;;10.77;3.30;;;;;;;;;;5046823;28;20024;-75
2022/09/30 13:10:46;;;;;;;9.77;3.50;;;;;;;;;;5063670;28;20032;-75
2022/09/30 13:13:23;;;;;;;19.55;5.68;;;;;;;;;;5058591;28;20115;-75
2022/09/30 13:15:50;;;;;;;13.65;3.25;;;;;;;;;;5062996;28;20074;-75
2022/09/30 13:18:19;;;;;;;9.73;3.20;;;;;;;;;;5061821;28;20477;-75
2022/09/30 13:20:55;;;;;;;10.90;3.50;;;;;;;;;;5046428;28;20035;-75
2022/09/30 13:23:40;;;;;;;8.73;3.30;;;;;;;;;;5062387;28;20064;-76
2022/09/30 13:26:26;;;;;;;8.88;3.05;;;;;;;;;;5067148;28;20469;-75
2022/09/30 13:28:53;;;;;;;10.10;2.72;;;;;;;;;;5062483;28;20046;-76
2022/09/30 13:31:19;;;;;;;10.23;2.72;;;;;;;;;;5047168;28;20036;-77
2022/09/30 13:33:46;;;;;;;8.88;2.88;;;;;;;;;;5065027;28;20047;-76
2022/09/30 13:36:33;;;;;;;6.03;2.70;;;;;;;;;;5068660;28;20904;-76
2022/09/30 13:39:25;;;;;;;7.53;2.90;;;;;;;;;;5032681;28;20056;-75
2022/09/30 13:42:04;;;;;;;7.85;2.67;;;;;;;;;;5044945;28;20037;-75
2022/09/30 13:44:39;;;;;;;6.45;3.35;;;;;;;;;;5051660;28;20090;-75
2022/09/30 13:47:10;;;;;;;7.55;2.65;;;;;;;;;;5065972;28;20024;-75
2022/09/30 13:49:42;;;;;;;7.78;3.00;;;;;;;;;;5065237;28;20032;-75
2022/09/30 13:52:20;;;;;;;5.22;2.60;;;;;;;;;;5079414;28;20040;-75
2022/09/30 13:54:47;;;;;;;8.40;2.90;;;;;;;;;;5063959;28;20549;-75
2022/09/30 13:57:22;;;;;;;7.72;2.90;;;;;;;;;;5071320;28;20119;-75
2022/09/30 13:59:48;;;;;;;8.05;2.63;;;;;;;;;;5069247;28;20048;-76
2022/09/30 14:02:21;;;;;;;7.72;2.53;;;;;;;;;;5049217;28;20561;-75
2022/09/30 14:05:07;;;;;;;6.47;2.58;;;;;;;;;;5068081;28;20021;-75
2022/09/30 14:07:36;;;;;;;5.13;2.42;;;;;;;;;;5065284;28;20031;-76
2022/09/30 14:10:05;;;;;;;9.02;2.72;;;;;;;;;;5068638;28;20044;-75
2022/09/30 14:12:50;;;;;;;8.40;2.25;;;;;;;;;;5064347;28;20029;-76
2022/09/30 14:15:36;;;;;;;7.18;2.58;;;;;;;;;;5050393;28;20064;-75
2022/09/30 14:18:21;;;;;;;9.25;2.35;;;;;;;;;;5048316;28;20537;-75
2022/09/30 14:21:00;;;;;;;6.55;2.58;;;;;;;;;;5063032;28;20039;-75
2022/09/30 14:23:27;;;;;;;9.55;2.70;;;;;;;;;;5047171;28;20117;-78
2022/09/30 14:25:59;;;;;;;5.10;1.52;;;;;;;;;;5062285;28;20020;-74
2022/09/30 14:28:36;;;;;;;6.25;2.75;;;;;;;;;;5064427;28;20025;-76
2022/09/30 14:31:08;;;;;;;5.68;2.00;;;;;;;;;;5068322;28;20111;-75
2022/09/30 14:33:36;;;;;;;4.22;2.00;;;;;;;;;;5065424;28;20512;-75
2022/09/30 14:36:03;;;;;;;5.20;2.15;;;;;;;;;;5063056;28;20024;-75
2022/09/30 14:38:32;;;;;;;6.53;2.75;;;;;;;;;;5047212;28;20050;-75
2022/09/30 14:41:06;;;;;;;7.20;2.15;;;;;;;;;;5028986;28;20037;-75
2022/09/30 14:43:35;;;;;;;5.03;1.88;;;;;;;;;;5065263;28;20699;-75
2022/09/30 14:46:22;;;;;;;5.97;2.63;;;;;;;;;;5050301;28;20028;-75
2022/09/30 14:48:49;;;;;;;6.53;2.30;;;;;;;;;;5053884;28;20032;-75
2022/09/30 14:51:16;;;;;;;9.77;2.35;;;;;;;;;;5068112;28;20113;-74
2022/09/30 14:53:52;;;;;;;5.65;2.00;;;;;;;;;;5047350;28;20020;-75
2022/09/30 14:56:22;;;;;;;6.50;3.13;;;;;;;;;;5065585;28;20415;-75
2022/09/30 14:58:51;;;;;;;10.43;2.33;;;;;;;;;;5068545;28;20064;-74
2022/09/30 15:01:20;;;;;;;3.90;1.92;;;;;;;;;;5062765;28;20507;-74
2022/09/30 15:03:49;;;;;;;5.22;1.88;;;;;;;;;;5063300;28;20031;-75
2022/09/30 15:06:20;;;;;;;6.88;2.30;;;;;;;;;;5047127;28;20035;-75